createdAt,value
2018-07-15T00:01:35.522Z,20.10
2018-07-15T00:04:03.818Z,20.00
2018-07-15T00:06:32.080Z,20.00
2018-07-15T00:09:01.369Z,20.00
2018-07-15T00:11:29.623Z,20.00
2018-07-15T00:13:57.917Z,20.00
2018-07-15T00:16:26.221Z,20.00
2018-07-15T00:18:54.477Z,19.90
2018-07-15T00:21:22.741Z,19.90
2018-07-15T00:23:51.027Z,19.80
2018-07-15T00:26:19.337Z,19.80
2018-07-15T00:28:47.585Z,19.80
2018-07-15T00:31:17.079Z,19.70
2018-07-15T00:33:46.641Z,19.70
2018-07-15T00:36:14.900Z,19.80
2018-07-15T00:38:43.199Z,19.80
2018-07-15T00:41:11.492Z,19.80
2018-07-15T00:43:39.790Z,19.70
2018-07-15T00:46:08.968Z,19.80
2018-07-15T00:48:37.283Z,19.70
2018-07-15T00:51:05.564Z,19.70
2018-07-15T00:53:33.866Z,19.60
2018-07-15T00:56:02.138Z,19.60
2018-07-15T00:58:30.439Z,19.50
2018-07-15T01:00:58.701Z,19.40
2018-07-15T01:03:26.951Z,19.40
2018-07-15T01:05:55.228Z,19.40
2018-07-15T01:08:23.477Z,19.40
2018-07-15T01:10:51.764Z,19.40
2018-07-15T01:13:20.018Z,19.40
2018-07-15T01:15:48.298Z,19.40
2018-07-15T01:18:16.552Z,19.40
2018-07-15T01:20:44.848Z,19.40
2018-07-15T01:26:06.608Z,19.30
2018-07-15T01:28:34.919Z,19.30
2018-07-15T01:31:03.176Z,19.30
2018-07-15T01:33:31.438Z,19.30
2018-07-15T01:35:59.728Z,19.30
2018-07-15T01:38:28.014Z,19.30
2018-07-15T01:40:56.306Z,19.20
2018-07-15T01:43:24.596Z,19.20
2018-07-15T01:45:52.872Z,19.20
2018-07-15T01:48:21.187Z,19.20
2018-07-15T01:50:49.439Z,19.10
2018-07-15T01:53:17.729Z,19.10
2018-07-15T01:55:45.983Z,19.10
2018-07-15T01:58:15.280Z,19.10
2018-07-15T02:00:43.561Z,19.00
2018-07-15T02:03:11.826Z,19.00
2018-07-15T02:05:40.114Z,19.00
2018-07-15T02:08:08.367Z,18.90
2018-07-15T02:10:36.624Z,18.90
2018-07-15T02:13:04.904Z,18.90
2018-07-15T02:15:33.184Z,18.80
2018-07-15T02:18:01.468Z,18.80
2018-07-15T02:20:29.800Z,18.90
2018-07-15T02:23:01.576Z,18.80
2018-07-15T02:25:29.859Z,18.80
2018-07-15T02:27:58.113Z,18.70
2018-07-15T02:30:26.365Z,18.70
2018-07-15T02:32:54.644Z,18.70
2018-07-15T02:35:22.927Z,18.70
2018-07-15T02:37:51.212Z,18.70
2018-07-15T02:40:19.493Z,18.60
2018-07-15T02:42:47.745Z,18.60
2018-07-15T02:45:16.034Z,18.60
2018-07-15T02:47:45.372Z,18.50
2018-07-15T02:50:13.660Z,18.50
2018-07-15T02:52:41.908Z,18.50
2018-07-15T02:55:09.393Z,18.40
2018-07-15T02:57:38.188Z,18.40
2018-07-15T03:00:06.480Z,18.40
2018-07-15T03:02:34.738Z,18.40
2018-07-15T03:05:03.016Z,18.40
2018-07-15T03:07:31.267Z,18.40
2018-07-15T03:09:59.544Z,18.30
2018-07-15T03:12:27.801Z,18.30
2018-07-15T03:14:56.088Z,18.30
2018-07-15T03:17:24.413Z,18.20
2018-07-15T03:19:52.645Z,18.20
2018-07-15T03:22:20.928Z,18.10
2018-07-15T03:24:49.196Z,18.10
2018-07-15T03:27:17.478Z,18.10
2018-07-15T03:29:46.999Z,18.10
2018-07-15T03:32:16.224Z,18.20
2018-07-15T03:34:44.530Z,18.20
2018-07-15T03:37:12.804Z,18.20
2018-07-15T03:39:41.071Z,18.20
2018-07-15T03:42:09.349Z,18.10
2018-07-15T03:44:38.268Z,18.10
2018-07-15T03:47:06.551Z,18.10
2018-07-15T03:49:34.799Z,18.00
2018-07-15T03:52:03.055Z,18.00
2018-07-15T03:54:34.564Z,18.00
2018-07-15T03:57:02.817Z,18.00
2018-07-15T03:59:31.103Z,18.00
2018-07-15T04:01:59.352Z,18.00
2018-07-15T04:04:27.632Z,18.00
2018-07-15T04:06:55.890Z,18.00
2018-07-15T04:09:23.412Z,18.00
2018-07-15T04:11:51.659Z,18.00
2018-07-15T04:14:19.946Z,18.00
2018-07-15T04:16:48.199Z,18.00
2018-07-15T04:19:16.485Z,18.00
2018-07-15T04:21:45.796Z,18.00
2018-07-15T04:24:13.343Z,18.00
2018-07-15T04:26:41.626Z,18.10
2018-07-15T04:29:16.432Z,18.00
2018-07-15T04:31:45.049Z,18.00
2018-07-15T04:34:13.325Z,18.00
2018-07-15T04:36:41.612Z,18.00
2018-07-15T04:39:09.864Z,18.00
2018-07-15T04:41:39.001Z,18.00
2018-07-15T04:44:07.622Z,18.00
2018-07-15T04:46:35.908Z,18.00
2018-07-15T04:49:04.192Z,18.00
2018-07-15T04:51:32.486Z,18.00
2018-07-15T04:54:00.777Z,18.00
2018-07-15T04:56:29.035Z,18.00
2018-07-15T04:58:57.299Z,18.00
2018-07-15T05:01:25.577Z,18.00
2018-07-15T05:03:53.059Z,18.00
2018-07-15T05:06:20.580Z,18.00
2018-07-15T05:08:48.871Z,18.00
2018-07-15T05:11:17.189Z,18.00
2018-07-15T05:13:46.516Z,18.10
2018-07-15T05:16:15.784Z,18.10
2018-07-15T05:18:44.526Z,18.20
2018-07-15T05:21:12.805Z,18.20
2018-07-15T05:23:41.061Z,18.30
2018-07-15T05:26:09.353Z,18.30
2018-07-15T05:28:38.823Z,18.30
2018-07-15T05:31:07.900Z,18.40
2018-07-15T05:33:36.183Z,18.30
2018-07-15T05:36:04.439Z,18.40
2018-07-15T05:38:32.691Z,18.40
2018-07-15T05:41:00.979Z,18.30
2018-07-15T05:43:29.229Z,18.20
2018-07-15T05:45:57.477Z,18.30
2018-07-15T05:48:24.987Z,18.20
2018-07-15T05:50:53.288Z,18.30
2018-07-15T05:53:21.528Z,18.50
2018-07-15T05:55:49.784Z,18.50
2018-07-15T05:58:18.063Z,18.70
2018-07-15T06:00:46.344Z,18.60
2018-07-15T06:03:15.241Z,18.60
2018-07-15T06:08:36.903Z,18.60
2018-07-15T06:11:05.156Z,18.80
2018-07-15T06:13:33.457Z,18.80
2018-07-15T06:16:01.773Z,18.80
2018-07-15T06:18:30.038Z,19.00
2018-07-15T06:20:58.301Z,19.00
2018-07-15T06:23:26.592Z,19.00
2018-07-15T06:25:54.847Z,19.10
2018-07-15T06:28:23.131Z,19.10
2018-07-15T06:30:51.390Z,19.10
2018-07-15T06:33:18.915Z,19.10
2018-07-15T06:35:47.178Z,19.20
2018-07-15T06:38:16.614Z,19.30
2018-07-15T06:40:45.815Z,19.50
2018-07-15T06:43:14.593Z,19.50
2018-07-15T06:45:42.885Z,19.60
2018-07-15T06:48:11.144Z,19.60
2018-07-15T06:50:39.440Z,19.70
2018-07-15T06:53:09.222Z,19.80
2018-07-15T06:55:38.756Z,19.70
2018-07-15T06:58:07.830Z,20.00
2018-07-15T07:00:36.113Z,19.90
2018-07-15T07:03:04.376Z,20.00
2018-07-15T07:05:32.624Z,20.10
2018-07-15T07:08:00.899Z,20.20
2018-07-15T07:10:29.164Z,20.20
2018-07-15T07:12:57.412Z,20.40
2018-07-15T07:15:25.697Z,20.50
2018-07-15T07:17:53.952Z,20.50
2018-07-15T07:20:22.320Z,20.60
2018-07-15T07:22:50.505Z,20.70
2018-07-15T07:25:18.755Z,21.00
2018-07-15T07:27:47.047Z,21.00
2018-07-15T07:30:16.404Z,21.10
2018-07-15T07:32:45.735Z,21.20
2018-07-15T07:35:14.700Z,21.30
2018-07-15T07:37:42.974Z,21.40
2018-07-15T07:40:11.223Z,21.50
2018-07-15T07:42:39.484Z,21.60
2018-07-15T07:45:08.485Z,21.70
2018-07-15T07:47:36.752Z,21.80
2018-07-15T07:50:05.040Z,21.90
2018-07-15T07:52:33.292Z,22.10
2018-07-15T07:55:01.590Z,22.00
2018-07-15T07:57:29.888Z,22.10
2018-07-15T07:59:58.158Z,22.20
2018-07-15T08:02:26.419Z,22.40
2018-07-15T08:04:54.698Z,22.40
2018-07-15T08:07:22.948Z,22.50
2018-07-15T08:09:51.237Z,22.70
2018-07-15T08:12:19.484Z,22.70
2018-07-15T08:14:47.768Z,22.70
2018-07-15T08:17:16.568Z,22.80
2018-07-15T08:19:45.696Z,23.00
2018-07-15T08:22:14.700Z,23.20
2018-07-15T08:24:45.947Z,23.30
2018-07-15T08:27:14.609Z,23.30
2018-07-15T08:29:42.891Z,23.40
2018-07-15T08:32:11.132Z,23.40
2018-07-15T08:34:39.419Z,23.50
2018-07-15T08:37:08.776Z,23.60
2018-07-15T08:39:37.856Z,23.70
2018-07-15T08:42:06.149Z,23.90
2018-07-15T08:44:34.420Z,23.90
2018-07-15T08:47:02.703Z,24.00
2018-07-15T08:49:30.960Z,24.10
2018-07-15T08:51:59.240Z,24.10
2018-07-15T08:54:27.515Z,24.00
2018-07-15T08:56:55.762Z,24.10
2018-07-15T08:59:24.068Z,24.30
2018-07-15T09:01:52.317Z,24.40
2018-07-15T09:04:20.568Z,24.30
2018-07-15T09:06:48.844Z,24.30
2018-07-15T09:09:17.091Z,24.60
2018-07-15T09:11:45.372Z,24.70
2018-07-15T09:14:13.648Z,24.80
2018-07-15T09:16:41.900Z,24.90
2018-07-15T09:19:10.177Z,24.90
2018-07-15T09:21:38.436Z,24.90
2018-07-15T09:24:06.730Z,24.90
2018-07-15T09:26:34.985Z,25.00
2018-07-15T09:29:03.247Z,25.30
2018-07-15T09:31:31.527Z,25.20
2018-07-15T09:33:59.829Z,25.20
2018-07-15T09:36:28.089Z,25.30
2018-07-15T09:38:56.385Z,25.40
2018-07-15T09:41:24.628Z,25.50
2018-07-15T09:43:52.922Z,25.70
2018-07-15T09:46:21.174Z,25.60
2018-07-15T09:48:49.457Z,25.70
2018-07-15T09:51:17.709Z,25.70
2018-07-15T09:53:45.223Z,25.70
2018-07-15T09:56:13.472Z,26.00
2018-07-15T09:58:41.752Z,26.10
2018-07-15T10:01:10.057Z,26.10
2018-07-15T10:03:38.307Z,26.20
2018-07-15T10:06:06.556Z,26.30
2018-07-15T10:08:34.840Z,26.30
2018-07-15T10:11:03.113Z,26.40
2018-07-15T10:13:31.370Z,26.60
2018-07-15T10:15:59.647Z,26.60
2018-07-15T10:18:27.908Z,26.60
2018-07-15T10:20:56.192Z,26.70
2018-07-15T10:23:23.690Z,26.70
2018-07-15T10:25:51.944Z,26.60
2018-07-15T10:28:20.237Z,26.80
2018-07-15T10:30:48.521Z,26.80
2018-07-15T10:33:16.948Z,26.80
2018-07-15T10:35:45.157Z,26.80
2018-07-15T10:38:12.653Z,26.80
2018-07-15T10:40:40.931Z,26.90
2018-07-15T10:43:09.184Z,27.00
2018-07-15T10:45:37.160Z,27.00
2018-07-15T10:48:05.508Z,27.40
2018-07-15T10:50:33.797Z,27.40
2018-07-15T10:53:02.105Z,27.40
2018-07-15T10:55:30.389Z,27.60
2018-07-15T10:57:58.640Z,27.80
2018-07-15T11:00:26.928Z,27.80
2018-07-15T11:02:55.189Z,27.80
2018-07-15T11:05:23.480Z,27.90
2018-07-15T11:07:51.733Z,28.00
2018-07-15T11:10:19.976Z,27.90
2018-07-15T11:12:48.253Z,28.00
2018-07-15T11:15:15.736Z,28.00
2018-07-15T11:17:44.012Z,28.00
2018-07-15T11:20:12.260Z,28.00
2018-07-15T11:22:40.540Z,27.90
2018-07-15T11:25:08.804Z,28.10
2018-07-15T11:27:37.092Z,28.20
2018-07-15T11:30:05.373Z,28.30
2018-07-15T11:32:33.625Z,28.50
2018-07-15T11:35:01.900Z,28.50
2018-07-15T11:37:30.156Z,28.50
2018-07-15T11:39:58.445Z,28.50
2018-07-15T11:42:26.724Z,28.50
2018-07-15T11:44:54.981Z,28.70
2018-07-15T11:47:23.269Z,28.80
2018-07-15T11:49:51.556Z,28.80
2018-07-15T11:52:19.832Z,28.70
2018-07-15T11:54:48.079Z,28.70
2018-07-15T11:57:16.365Z,28.90
2018-07-15T11:59:45.046Z,29.00
2018-07-15T12:02:13.325Z,28.90
2018-07-15T12:04:41.576Z,28.80
2018-07-15T12:07:09.853Z,28.90
2018-07-15T12:09:38.144Z,28.90
2018-07-15T12:12:06.397Z,29.00
2018-07-15T12:14:34.653Z,29.00
2018-07-15T12:17:02.929Z,29.30
2018-07-15T12:19:31.211Z,29.10
2018-07-15T12:21:59.459Z,29.10
2018-07-15T12:24:27.749Z,29.20
2018-07-15T12:26:56.064Z,29.20
2018-07-15T12:29:24.313Z,29.40
2018-07-15T12:31:52.593Z,29.40
2018-07-15T12:34:20.077Z,29.40
2018-07-15T12:36:48.357Z,29.10
2018-07-15T12:39:16.660Z,29.20
2018-07-15T12:41:44.948Z,29.30
2018-07-15T12:44:13.204Z,29.20
2018-07-15T12:46:41.475Z,29.30
2018-07-15T12:49:09.748Z,29.30
2018-07-15T12:51:38.008Z,29.40
2018-07-15T12:54:07.347Z,29.50
2018-07-15T12:56:37.555Z,29.60
2018-07-15T12:59:05.805Z,29.60
2018-07-15T13:01:34.495Z,29.60
2018-07-15T13:04:02.782Z,29.70
2018-07-15T13:06:31.045Z,29.60
2018-07-15T13:08:59.326Z,29.60
2018-07-15T13:11:27.567Z,29.50
2018-07-15T13:13:55.852Z,29.50
2018-07-15T13:16:24.112Z,29.50
2018-07-15T13:18:52.392Z,29.40
2018-07-15T13:21:20.644Z,29.60
2018-07-15T13:23:48.940Z,29.60
2018-07-15T13:26:17.194Z,29.60
2018-07-15T13:28:45.483Z,29.80
2018-07-15T13:31:13.736Z,29.60
2018-07-15T13:33:41.994Z,29.70
2018-07-15T13:36:10.288Z,29.70
2018-07-15T13:38:38.540Z,29.80
2018-07-15T13:41:06.805Z,30.00
2018-07-15T13:43:35.090Z,30.00
2018-07-15T13:46:03.378Z,30.00
2018-07-15T13:48:31.663Z,30.20
2018-07-15T13:50:59.922Z,30.10
2018-07-15T13:53:28.205Z,30.20
2018-07-15T13:55:56.476Z,30.40
2018-07-15T13:58:24.001Z,30.40
2018-07-15T14:00:52.260Z,30.40
2018-07-15T14:06:13.330Z,30.30
2018-07-15T14:08:41.604Z,30.50
2018-07-15T14:11:09.882Z,30.40
2018-07-15T14:13:38.156Z,30.50
2018-07-15T14:16:06.394Z,30.30
2018-07-15T14:18:34.671Z,30.50
2018-07-15T14:21:02.921Z,30.40
2018-07-15T14:23:30.436Z,30.40
2018-07-15T14:25:58.688Z,30.70
2018-07-15T14:28:26.981Z,30.70
2018-07-15T14:30:55.234Z,30.50
2018-07-15T14:33:23.505Z,30.30
2018-07-15T14:35:51.752Z,30.30
2018-07-15T14:38:20.003Z,30.40
2018-07-15T14:40:48.271Z,30.30
2018-07-15T14:43:16.530Z,30.50
2018-07-15T14:45:44.053Z,30.40
2018-07-15T14:48:12.308Z,30.50
2018-07-15T14:50:40.592Z,30.60
2018-07-15T14:53:08.071Z,30.50
2018-07-15T14:55:36.352Z,30.60
2018-07-15T14:58:03.837Z,30.60
2018-07-15T15:00:32.084Z,30.80
2018-07-15T15:03:00.367Z,30.80
2018-07-15T15:05:28.619Z,30.70
2018-07-15T15:07:56.920Z,30.80
2018-07-15T15:10:25.170Z,30.70
2018-07-15T15:12:53.521Z,30.70
2018-07-15T15:15:21.768Z,30.60
2018-07-15T15:17:50.017Z,30.70
2018-07-15T15:20:18.288Z,30.80
2018-07-15T15:22:46.576Z,30.70
2018-07-15T15:25:14.844Z,30.70
2018-07-15T15:27:43.136Z,30.80
2018-07-15T15:30:11.388Z,30.90
2018-07-15T15:32:39.643Z,30.80
2018-07-15T15:35:07.941Z,30.80
2018-07-15T15:37:36.189Z,30.80
2018-07-15T15:40:04.463Z,30.60
2018-07-15T15:42:32.016Z,30.60
2018-07-15T15:44:59.494Z,30.60
2018-07-15T15:47:27.766Z,30.60
2018-07-15T15:49:56.012Z,30.50
2018-07-15T15:52:24.309Z,30.40
2018-07-15T15:54:51.795Z,30.40
2018-07-15T15:57:20.071Z,30.50
2018-07-15T15:59:48.352Z,30.40
2018-07-15T16:02:16.634Z,30.20
2018-07-15T16:04:44.924Z,30.10
2018-07-15T16:07:13.171Z,30.10
2018-07-15T16:09:41.415Z,30.10
2018-07-15T16:12:09.692Z,30.10
2018-07-15T16:14:37.948Z,30.10
2018-07-15T16:17:06.228Z,30.10
2018-07-15T16:19:34.479Z,30.10
2018-07-15T16:22:02.764Z,30.30
2018-07-15T16:24:30.248Z,30.30
2018-07-15T16:26:58.523Z,30.10
2018-07-15T16:29:26.780Z,30.00
2018-07-15T16:31:55.053Z,29.90
2018-07-15T16:34:23.301Z,29.90
2018-07-15T16:36:51.588Z,29.90
2018-07-15T16:39:19.829Z,29.80
2018-07-15T16:41:48.076Z,29.70
2018-07-15T16:44:16.350Z,29.70
2018-07-15T16:46:44.640Z,29.50
2018-07-15T16:49:12.892Z,29.60
2018-07-15T16:51:41.170Z,29.70
2018-07-15T16:54:09.445Z,29.70
2018-07-15T16:56:38.584Z,29.50
2018-07-15T16:59:06.883Z,29.50
2018-07-15T17:01:35.194Z,29.60
2018-07-15T17:04:03.396Z,29.40
2018-07-15T17:06:31.668Z,29.30
2018-07-15T17:08:59.944Z,29.20
2018-07-15T17:11:28.220Z,29.10
2018-07-15T17:13:55.699Z,29.00
2018-07-15T17:16:23.983Z,29.00
2018-07-15T17:18:52.227Z,29.00
2018-07-15T17:21:20.507Z,29.00
2018-07-15T17:23:48.809Z,29.00
2018-07-15T17:26:17.060Z,28.90
2018-07-15T17:28:45.313Z,28.80
2018-07-15T17:31:13.592Z,28.70
2018-07-15T17:33:41.869Z,28.70
2018-07-15T17:36:10.240Z,28.80
2018-07-15T17:38:38.494Z,28.70
2018-07-15T17:41:06.776Z,28.60
2018-07-15T17:43:35.054Z,28.40
2018-07-15T17:46:03.299Z,28.40
2018-07-15T17:48:31.588Z,28.40
2018-07-15T17:50:59.866Z,28.40
2018-07-15T17:53:28.156Z,28.30
2018-07-15T17:55:56.448Z,28.30
2018-07-15T17:58:24.703Z,28.30
2018-07-15T18:00:52.968Z,28.20
2018-07-15T18:03:21.248Z,28.00
2018-07-15T18:05:49.496Z,28.00
2018-07-15T18:08:17.772Z,27.90
2018-07-15T18:10:46.020Z,27.90
2018-07-15T18:13:15.241Z,27.80
2018-07-15T18:15:43.521Z,27.80
2018-07-15T18:18:11.779Z,27.60
2018-07-15T18:20:40.125Z,27.70
2018-07-15T18:23:09.282Z,27.60
2018-07-15T18:25:37.536Z,27.40
2018-07-15T18:28:06.817Z,27.30
2018-07-15T18:30:35.070Z,27.20
2018-07-15T18:33:03.347Z,27.20
2018-07-15T18:35:31.604Z,27.10
2018-07-15T18:37:59.872Z,27.10
2018-07-15T18:40:28.148Z,26.90
2018-07-15T18:42:55.648Z,26.90
2018-07-15T18:45:25.837Z,26.80
2018-07-15T18:47:54.112Z,26.80
2018-07-15T18:50:22.360Z,26.70
2018-07-15T18:52:50.632Z,26.60
2018-07-15T18:55:18.890Z,26.60
2018-07-15T18:57:47.192Z,26.50
2018-07-15T19:00:15.449Z,26.50
2018-07-15T19:02:42.940Z,26.50
2018-07-15T19:05:11.216Z,26.30
2018-07-15T19:07:39.468Z,26.30
2018-07-15T19:10:08.752Z,26.20
2018-07-15T19:12:37.014Z,26.10
2018-07-15T19:15:05.305Z,26.10
2018-07-15T19:17:33.589Z,26.10
2018-07-15T19:20:01.848Z,25.90
2018-07-15T19:22:30.127Z,25.90
2018-07-15T19:24:58.378Z,25.90
2018-07-15T19:27:26.659Z,25.90
2018-07-15T19:29:54.944Z,25.90
2018-07-15T19:32:23.213Z,25.80
2018-07-15T19:34:51.492Z,25.80
2018-07-15T19:37:19.740Z,25.70
2018-07-15T19:39:48.025Z,25.60
2018-07-15T19:42:16.335Z,25.70
2018-07-15T19:44:44.577Z,25.50
2018-07-15T19:47:12.838Z,25.50
2018-07-15T19:49:41.116Z,25.50
2018-07-15T19:52:09.363Z,25.50
2018-07-15T19:54:37.635Z,25.40
2018-07-15T19:57:09.189Z,25.40
2018-07-15T19:59:37.506Z,25.40
2018-07-15T20:02:05.752Z,25.30
2018-07-15T20:04:33.997Z,25.20
2018-07-15T20:07:02.284Z,25.10
2018-07-15T20:09:30.565Z,25.10
2018-07-15T20:11:58.816Z,25.10
2018-07-15T20:14:27.121Z,25.00
2018-07-15T20:16:55.401Z,24.90
2018-07-15T20:19:23.667Z,24.90
2018-07-15T20:21:51.965Z,24.80
2018-07-15T20:24:20.212Z,24.80
2018-07-15T20:26:48.488Z,24.70
2018-07-15T20:29:16.752Z,24.70
2018-07-15T20:31:45.047Z,24.60
2018-07-15T20:34:13.326Z,24.60
2018-07-15T20:36:41.650Z,24.50
2018-07-15T20:39:09.933Z,24.40
2018-07-15T20:41:38.208Z,24.30
2018-07-15T20:44:06.504Z,24.20
2018-07-15T20:46:34.803Z,24.10
2018-07-15T20:49:03.072Z,24.10
2018-07-15T20:51:31.357Z,24.00
2018-07-15T20:53:59.621Z,24.00
2018-07-15T20:56:33.132Z,24.00
2018-07-15T20:59:01.389Z,23.80
2018-07-15T21:04:22.999Z,23.80
2018-07-15T21:06:51.295Z,23.70
2018-07-15T21:09:19.552Z,23.70
2018-07-15T21:11:47.813Z,23.60
2018-07-15T21:14:16.092Z,23.50
2018-07-15T21:16:44.335Z,23.50
2018-07-15T21:19:12.686Z,23.40
2018-07-15T21:21:40.901Z,23.30
2018-07-15T21:24:09.408Z,23.30
2018-07-15T21:26:37.691Z,23.30
2018-07-15T21:29:06.042Z,23.30
2018-07-15T21:31:34.398Z,23.20
2018-07-15T21:34:02.561Z,23.10
2018-07-15T21:36:30.856Z,23.10
2018-07-15T21:38:59.133Z,22.90
2018-07-15T21:41:27.414Z,22.90
2018-07-15T21:43:56.657Z,22.80
2018-07-15T21:46:24.956Z,22.80
2018-07-15T21:48:53.215Z,22.80
2018-07-15T21:51:21.505Z,22.70
2018-07-15T21:53:49.754Z,22.70
2018-07-15T21:56:18.036Z,22.70
2018-07-15T21:58:51.636Z,22.70
2018-07-15T22:01:19.926Z,22.70
2018-07-15T22:03:48.207Z,22.70
2018-07-15T22:06:16.496Z,22.70
2018-07-15T22:08:44.752Z,22.60
2018-07-15T22:11:13.151Z,22.50
2018-07-15T22:13:41.453Z,22.40
2018-07-15T22:16:09.753Z,22.40
2018-07-15T22:18:44.856Z,22.30
2018-07-15T22:21:13.200Z,22.30
2018-07-15T22:23:41.464Z,22.30
2018-07-15T22:26:09.731Z,22.20
2018-07-15T22:28:38.017Z,22.20
2018-07-15T22:31:06.335Z,22.20
2018-07-15T22:33:34.577Z,22.10
2018-07-15T22:36:02.063Z,22.10
2018-07-15T22:38:30.339Z,22.00
2018-07-15T22:40:58.590Z,22.00
2018-07-15T22:43:26.877Z,22.00
2018-07-15T22:45:54.373Z,22.00
2018-07-15T22:48:22.667Z,22.00
2018-07-15T22:50:50.912Z,21.90
2018-07-15T22:53:19.220Z,21.90
2018-07-15T22:55:47.463Z,21.80
2018-07-15T22:58:16.696Z,21.80
2018-07-15T23:00:44.982Z,21.80
2018-07-15T23:03:13.243Z,21.80
2018-07-15T23:06:06.353Z,21.70
2018-07-15T23:08:34.600Z,21.60
2018-07-15T23:11:02.895Z,21.60
2018-07-15T23:13:31.140Z,21.60
2018-07-15T23:16:02.710Z,21.50
2018-07-15T23:18:30.968Z,21.50
2018-07-15T23:20:59.260Z,21.60
2018-07-15T23:23:27.549Z,21.50
2018-07-15T23:26:02.652Z,21.50
2018-07-15T23:28:30.935Z,21.50
2018-07-15T23:31:00.217Z,21.50
2018-07-15T23:36:21.108Z,21.40
2018-07-15T23:38:49.406Z,21.30
2018-07-15T23:41:17.669Z,21.20
2018-07-15T23:43:45.951Z,21.30
2018-07-15T23:46:13.476Z,21.30
2018-07-15T23:48:42.733Z,21.20
2018-07-15T23:51:10.984Z,21.30
2018-07-15T23:53:49.315Z,21.20
2018-07-15T23:56:17.560Z,21.20
2018-07-15T23:58:46.806Z,21.20
